Time;durP1;ratioP1;P1;durP2;ratioP2;P2;SDS_P1;SDS_P2;PMS_P1;PMS_P2;Temp;Humidity;BMP_temperature;BMP_pressure;BME280_temperature;BME280_humidity;BME280_pressure;Samples;Min_cycle;Max_cycle;Signal;HPM_P1;HPM_P2
2022/03/22 00:02:15;;;;;;;11.77;7.40;;;;;;;;;;4996874;28;20266;-75
2022/03/22 00:04:40;;;;;;;15.20;8.63;;;;;;;;;;4999377;28;20348;-75
2022/03/22 00:07:07;;;;;;;12.80;8.40;;;;;;;;;;5010421;28;20176;-75
2022/03/22 00:09:33;;;;;;;12.10;7.63;;;;;;;;;;4998718;28;20179;-75
2022/03/22 00:11:58;;;;;;;10.30;7.50;;;;;;;;;;4994565;28;20187;-76
2022/03/22 00:14:23;;;;;;;10.13;7.40;;;;;;;;;;5025969;28;20227;-76
2022/03/22 00:16:48;;;;;;;11.50;7.27;;;;;;;;;;4998892;28;20212;-75
2022/03/22 00:19:14;;;;;;;11.20;8.37;;;;;;;;;;4998425;28;20229;-75
2022/03/22 00:21:39;;;;;;;10.40;8.07;;;;;;;;;;4994975;28;20184;-75
2022/03/22 00:24:04;;;;;;;11.83;8.20;;;;;;;;;;5008602;28;20185;-75
2022/03/22 00:26:29;;;;;;;10.57;7.87;;;;;;;;;;5023822;28;20194;-76
2022/03/22 00:28:54;;;;;;;12.47;8.07;;;;;;;;;;4993756;28;20205;-76
2022/03/22 00:31:20;;;;;;;17.77;7.63;;;;;;;;;;5008397;28;20183;-75
2022/03/22 00:33:45;;;;;;;10.77;7.60;;;;;;;;;;4992573;28;20191;-76
2022/03/22 00:36:13;;;;;;;9.47;7.27;;;;;;;;;;5011224;28;20222;-75
2022/03/22 00:38:39;;;;;;;10.23;8.37;;;;;;;;;;5017565;28;20182;-75
2022/03/22 00:41:04;;;;;;;12.13;7.47;;;;;;;;;;5014846;28;20183;-76
2022/03/22 00:43:30;;;;;;;9.73;7.17;;;;;;;;;;5000021;28;20276;-76
2022/03/22 00:45:55;;;;;;;10.83;7.57;;;;;;;;;;5000733;28;20239;-75
2022/03/22 00:48:20;;;;;;;12.83;8.67;;;;;;;;;;5025873;28;20216;-75
2022/03/22 00:50:48;;;;;;;11.33;8.40;;;;;;;;;;5002380;28;20190;-75
2022/03/22 00:53:17;;;;;;;10.83;8.07;;;;;;;;;;5000797;28;20180;-76
2022/03/22 00:55:43;;;;;;;10.20;7.93;;;;;;;;;;4997747;28;20229;-75
2022/03/22 00:58:09;;;;;;;10.80;7.80;;;;;;;;;;5008182;28;20240;-75
2022/03/22 01:00:34;;;;;;;11.60;7.70;;;;;;;;;;5027900;28;20275;-75
2022/03/22 01:03:01;;;;;;;10.27;7.70;;;;;;;;;;5007204;28;20180;-75
2022/03/22 01:05:28;;;;;;;9.27;6.90;;;;;;;;;;5033265;28;20706;-75
2022/03/22 01:07:55;;;;;;;11.30;7.10;;;;;;;;;;5000097;28;20191;-75
2022/03/22 01:10:21;;;;;;;10.67;7.57;;;;;;;;;;4999990;28;20176;-75
2022/03/22 01:12:47;;;;;;;11.80;7.77;;;;;;;;;;5015341;28;20170;-75
2022/03/22 01:15:19;;;;;;;13.80;8.07;;;;;;;;;;4997540;28;20733;-75
2022/03/22 01:17:45;;;;;;;16.57;7.63;;;;;;;;;;5003925;28;20229;-75
2022/03/22 01:20:10;;;;;;;11.27;7.57;;;;;;;;;;5026638;28;20182;-75
2022/03/22 01:22:39;;;;;;;11.23;7.77;;;;;;;;;;5011033;28;20168;-75
2022/03/22 01:25:08;;;;;;;12.03;7.30;;;;;;;;;;4999930;28;20268;-75
2022/03/22 01:27:34;;;;;;;9.37;7.27;;;;;;;;;;5018819;28;20187;-75
2022/03/22 01:30:00;;;;;;;12.10;7.43;;;;;;;;;;5021228;28;20181;-75
2022/03/22 01:32:25;;;;;;;11.30;7.43;;;;;;;;;;5002357;28;20618;-76
2022/03/22 01:34:50;;;;;;;10.97;7.30;;;;;;;;;;5011003;28;20242;-75
2022/03/22 01:37:15;;;;;;;12.83;7.57;;;;;;;;;;5014904;28;20246;-75
2022/03/22 01:39:41;;;;;;;9.87;6.87;;;;;;;;;;5010950;28;20214;-75
2022/03/22 01:42:06;;;;;;;10.43;8.17;;;;;;;;;;5017380;28;20181;-75
2022/03/22 01:44:32;;;;;;;12.47;8.03;;;;;;;;;;4998547;28;20191;-75
2022/03/22 01:47:01;;;;;;;10.20;7.70;;;;;;;;;;5028165;28;20183;-75
2022/03/22 01:49:27;;;;;;;10.07;7.80;;;;;;;;;;5010792;28;20187;-75
2022/03/22 01:51:53;;;;;;;10.97;7.47;;;;;;;;;;5001842;28;20184;-75
2022/03/22 01:54:18;;;;;;;11.33;7.67;;;;;;;;;;5012202;28;20178;-75
2022/03/22 01:56:43;;;;;;;10.50;7.50;;;;;;;;;;5023696;28;20278;-75
2022/03/22 01:59:09;;;;;;;12.40;7.87;;;;;;;;;;5000814;28;20179;-75
2022/03/22 02:07:03;;;;;;;8.53;6.77;;;;;;;;;;5008350;28;20230;-75
2022/03/22 02:09:29;;;;;;;11.07;8.20;;;;;;;;;;4992058;28;20184;-75
2022/03/22 02:11:55;;;;;;;10.20;7.43;;;;;;;;;;5022489;28;20187;-75
2022/03/22 02:14:20;;;;;;;10.30;7.90;;;;;;;;;;4999961;28;20246;-75
2022/03/22 02:16:45;;;;;;;12.10;7.20;;;;;;;;;;4999557;28;20207;-75
2022/03/22 02:19:13;;;;;;;11.13;7.77;;;;;;;;;;5014956;28;20183;-75
2022/03/22 02:21:39;;;;;;;9.03;7.20;;;;;;;;;;5003763;28;20174;-75
2022/03/22 02:24:05;;;;;;;11.47;7.57;;;;;;;;;;5020341;28;20241;-75
2022/03/22 02:26:30;;;;;;;10.97;7.90;;;;;;;;;;5002624;28;20535;-75
2022/03/22 02:28:55;;;;;;;12.53;8.47;;;;;;;;;;4993992;28;20191;-75
2022/03/22 02:31:22;;;;;;;14.27;7.33;;;;;;;;;;4994230;28;20266;-75
2022/03/22 02:33:47;;;;;;;10.23;7.73;;;;;;;;;;5006116;28;20190;-75
2022/03/22 02:36:12;;;;;;;11.60;7.77;;;;;;;;;;5015107;28;20195;-75
2022/03/22 02:38:38;;;;;;;12.87;7.90;;;;;;;;;;5001593;28;20190;-75
2022/03/22 02:41:04;;;;;;;15.03;8.00;;;;;;;;;;5015233;28;20178;-75
2022/03/22 02:43:30;;;;;;;13.20;8.27;;;;;;;;;;4989797;28;20292;-75
2022/03/22 02:45:55;;;;;;;10.70;7.73;;;;;;;;;;5030247;28;20195;-75
2022/03/22 02:48:20;;;;;;;12.83;7.33;;;;;;;;;;5017168;28;20253;-76
2022/03/22 02:50:45;;;;;;;9.43;7.10;;;;;;;;;;5025313;28;20176;-75
2022/03/22 02:53:10;;;;;;;11.27;7.40;;;;;;;;;;5020667;28;20274;-75
2022/03/22 02:55:36;;;;;;;9.97;7.30;;;;;;;;;;4986400;28;20207;-75
2022/03/22 02:58:02;;;;;;;9.60;6.53;;;;;;;;;;5012561;28;20210;-75
2022/03/22 03:00:27;;;;;;;13.00;8.07;;;;;;;;;;5001399;28;20187;-75
2022/03/22 03:02:53;;;;;;;10.10;7.53;;;;;;;;;;5029572;28;20223;-75
2022/03/22 03:05:19;;;;;;;13.07;7.40;;;;;;;;;;5022990;28;20202;-75
2022/03/22 03:07:44;;;;;;;10.93;8.20;;;;;;;;;;5017621;28;20187;-75
2022/03/22 03:10:10;;;;;;;9.67;7.03;;;;;;;;;;5014731;28;20175;-75
2022/03/22 03:12:35;;;;;;;10.20;7.20;;;;;;;;;;5002163;28;20193;-75
2022/03/22 03:15:01;;;;;;;10.47;7.90;;;;;;;;;;5027200;28;20235;-75
2022/03/22 03:17:26;;;;;;;11.23;7.77;;;;;;;;;;5011887;28;20178;-74
2022/03/22 03:19:51;;;;;;;10.33;7.50;;;;;;;;;;5031261;28;20171;-75
2022/03/22 03:22:16;;;;;;;10.80;7.57;;;;;;;;;;5017338;28;20241;-75
2022/03/22 03:24:41;;;;;;;10.37;7.87;;;;;;;;;;4988700;28;20179;-75
2022/03/22 03:27:07;;;;;;;11.10;7.87;;;;;;;;;;4989677;28;20184;-75
2022/03/22 03:29:32;;;;;;;11.07;8.10;;;;;;;;;;4992865;28;20171;-75
2022/03/22 03:31:57;;;;;;;11.60;7.87;;;;;;;;;;5001900;28;20190;-75
2022/03/22 03:34:22;;;;;;;12.63;8.17;;;;;;;;;;4989300;28;20261;-75
2022/03/22 03:36:48;;;;;;;11.07;7.43;;;;;;;;;;5009652;28;20196;-75
2022/03/22 03:39:13;;;;;;;9.97;7.43;;;;;;;;;;5015927;28;20272;-75
2022/03/22 03:41:54;;;;;;;11.57;7.20;;;;;;;;;;4996106;28;21898;-75
2022/03/22 03:47:07;;;;;;;10.87;7.03;;;;;;;;;;5023709;28;20186;-75
2022/03/22 03:49:34;;;;;;;11.97;7.33;;;;;;;;;;4998204;28;20201;-75
2022/03/22 03:51:59;;;;;;;9.60;7.10;;;;;;;;;;4996482;28;20181;-75
2022/03/22 03:54:25;;;;;;;9.73;6.07;;;;;;;;;;5004633;28;20204;-75
2022/03/22 03:56:50;;;;;;;10.63;7.33;;;;;;;;;;4997666;28;20206;-75
2022/03/22 03:59:15;;;;;;;11.90;8.23;;;;;;;;;;5000011;28;20175;-75
2022/03/22 04:01:40;;;;;;;12.10;7.47;;;;;;;;;;5021526;28;20213;-75
2022/03/22 04:04:05;;;;;;;11.27;7.87;;;;;;;;;;4990513;28;20223;-75
2022/03/22 04:06:31;;;;;;;12.30;8.63;;;;;;;;;;5003280;28;20185;-75
2022/03/22 04:08:56;;;;;;;12.03;8.30;;;;;;;;;;4988357;28;20190;-75
2022/03/22 04:11:21;;;;;;;15.17;9.60;;;;;;;;;;5005315;28;20236;-75
2022/03/22 04:13:47;;;;;;;9.83;7.93;;;;;;;;;;4995086;28;20287;-75
2022/03/22 04:16:12;;;;;;;14.77;7.90;;;;;;;;;;5021562;28;20276;-75
2022/03/22 04:18:37;;;;;;;20.40;12.17;;;;;;;;;;4998476;28;20194;-75
2022/03/22 04:21:02;;;;;;;16.53;10.57;;;;;;;;;;4999825;28;20181;-75
2022/03/22 04:23:28;;;;;;;20.00;9.90;;;;;;;;;;5031657;28;20186;-74
2022/03/22 04:25:54;;;;;;;14.33;8.93;;;;;;;;;;5019670;28;20179;-75
2022/03/22 04:34:01;;;;;;;15.00;10.03;;;;;;;;;;5004565;28;20185;-75
2022/03/22 04:36:27;;;;;;;20.50;10.27;;;;;;;;;;5013324;28;20198;-75
2022/03/22 04:38:53;;;;;;;13.67;9.00;;;;;;;;;;5023779;28;20209;-75
2022/03/22 04:41:18;;;;;;;15.30;8.67;;;;;;;;;;5032278;28;20199;-74
2022/03/22 04:43:43;;;;;;;11.13;8.70;;;;;;;;;;5001151;28;20188;-75
2022/03/22 04:46:08;;;;;;;14.30;8.87;;;;;;;;;;5018291;28;20179;-75
2022/03/22 04:48:34;;;;;;;13.27;8.90;;;;;;;;;;5024423;28;20185;-75
2022/03/22 04:59:12;;;;;;;16.00;10.10;;;;;;;;;;5011241;28;20313;-75
2022/03/22 05:01:37;;;;;;;15.67;10.40;;;;;;;;;;4993463;28;20571;-75
2022/03/22 05:04:02;;;;;;;12.50;8.50;;;;;;;;;;4995495;28;20214;-75
2022/03/22 05:06:28;;;;;;;15.33;9.23;;;;;;;;;;5018140;28;20194;-75
2022/03/22 05:08:54;;;;;;;13.50;8.97;;;;;;;;;;5022446;28;20183;-75
2022/03/22 05:11:20;;;;;;;17.40;8.93;;;;;;;;;;5008176;28;20179;-75
2022/03/22 05:13:45;;;;;;;15.43;9.00;;;;;;;;;;4997958;28;20279;-75
2022/03/22 05:16:10;;;;;;;13.57;8.10;;;;;;;;;;5015306;28;20231;-75
2022/03/22 05:18:36;;;;;;;17.80;8.00;;;;;;;;;;4996457;28;20291;-75
2022/03/22 05:21:04;;;;;;;14.33;7.10;;;;;;;;;;4997253;28;20187;-75
2022/03/22 05:23:29;;;;;;;14.10;7.03;;;;;;;;;;5013656;28;20257;-75
2022/03/22 05:25:54;;;;;;;11.40;7.07;;;;;;;;;;5014135;28;20188;-75
2022/03/22 05:28:19;;;;;;;11.00;6.93;;;;;;;;;;5019935;28;20265;-75
2022/03/22 05:30:45;;;;;;;11.63;7.00;;;;;;;;;;5029852;28;20176;-75
2022/03/22 05:33:10;;;;;;;12.17;6.90;;;;;;;;;;5001966;28;20221;-75
2022/03/22 05:35:35;;;;;;;10.47;6.97;;;;;;;;;;4992994;28;20294;-75
2022/03/22 05:38:00;;;;;;;9.27;6.70;;;;;;;;;;4992311;28;20178;-75
2022/03/22 05:40:25;;;;;;;14.63;7.63;;;;;;;;;;5025923;28;20404;-75
2022/03/22 05:42:51;;;;;;;12.83;7.17;;;;;;;;;;5001448;28;20190;-75
2022/03/22 05:45:17;;;;;;;10.70;6.83;;;;;;;;;;5003269;28;20182;-75
2022/03/22 05:47:42;;;;;;;12.23;7.37;;;;;;;;;;5000287;28;20183;-75
2022/03/22 05:50:08;;;;;;;9.50;7.20;;;;;;;;;;4998784;28;20175;-75
2022/03/22 05:52:33;;;;;;;8.33;6.63;;;;;;;;;;4993155;28;20183;-75
2022/03/22 05:54:59;;;;;;;12.47;8.57;;;;;;;;;;5031384;28;20175;-75
2022/03/22 05:57:24;;;;;;;10.87;7.23;;;;;;;;;;5006350;28;20209;-75
2022/03/22 05:59:49;;;;;;;13.13;7.17;;;;;;;;;;5018504;28;20170;-75
2022/03/22 06:02:14;;;;;;;14.13;7.47;;;;;;;;;;5003926;28;20212;-75
2022/03/22 06:04:39;;;;;;;16.10;8.10;;;;;;;;;;5021390;28;20241;-75
2022/03/22 06:07:05;;;;;;;13.00;7.93;;;;;;;;;;4992138;28;20650;-75
2022/03/22 06:09:31;;;;;;;12.07;8.27;;;;;;;;;;4995858;28;20195;-75
2022/03/22 06:11:56;;;;;;;12.23;8.13;;;;;;;;;;4991082;28;20194;-75
2022/03/22 06:14:21;;;;;;;12.93;8.33;;;;;;;;;;5029511;28;20227;-84
2022/03/22 06:16:46;;;;;;;10.40;7.00;;;;;;;;;;4994944;28;20289;-77
2022/03/22 06:19:11;;;;;;;13.80;7.40;;;;;;;;;;4996332;28;20183;-77
2022/03/22 06:21:37;;;;;;;17.43;9.37;;;;;;;;;;4996847;28;20175;-77
2022/03/22 06:24:02;;;;;;;15.17;7.63;;;;;;;;;;5016182;28;20333;-77
2022/03/22 06:26:27;;;;;;;15.40;7.73;;;;;;;;;;5008631;28;20201;-77
2022/03/22 06:28:52;;;;;;;10.53;6.70;;;;;;;;;;5023268;28;20229;-77
2022/03/22 06:31:17;;;;;;;15.40;7.23;;;;;;;;;;4995778;28;20186;-77
2022/03/22 06:33:43;;;;;;;12.27;7.17;;;;;;;;;;5027550;28;20207;-77
2022/03/22 06:36:08;;;;;;;11.57;6.67;;;;;;;;;;4995734;28;20194;-77
2022/03/22 06:38:34;;;;;;;9.43;6.30;;;;;;;;;;5031451;28;20178;-77
2022/03/22 06:40:59;;;;;;;10.37;6.40;;;;;;;;;;4993702;28;20179;-77
2022/03/22 06:43:25;;;;;;;15.23;8.53;;;;;;;;;;5023784;28;20187;-77
2022/03/22 06:45:50;;;;;;;16.43;8.67;;;;;;;;;;5000059;28;20182;-77
2022/03/22 06:48:15;;;;;;;13.97;11.07;;;;;;;;;;5018257;28;20179;-77
2022/03/22 06:50:42;;;;;;;24.40;16.57;;;;;;;;;;5003492;28;20180;-77
2022/03/22 06:53:07;;;;;;;16.43;10.70;;;;;;;;;;5014446;28;20187;-77
2022/03/22 06:55:34;;;;;;;15.43;9.73;;;;;;;;;;4999187;28;20195;-77
2022/03/22 06:57:59;;;;;;;14.23;8.67;;;;;;;;;;4998261;28;20236;-77
2022/03/22 07:00:27;;;;;;;13.00;9.63;;;;;;;;;;4987784;28;20187;-77
2022/03/22 07:02:53;;;;;;;13.57;8.00;;;;;;;;;;4993913;28;20390;-77
2022/03/22 07:05:18;;;;;;;7.20;6.13;;;;;;;;;;4998075;28;20413;-77
2022/03/22 07:07:43;;;;;;;8.32;6.00;;;;;;;;;;4993101;28;20203;-78
2022/03/22 07:10:10;;;;;;;14.83;8.10;;;;;;;;;;5007632;28;20178;-78
2022/03/22 07:12:45;;;;;;;9.60;7.17;;;;;;;;;;4994976;28;20195;-78
2022/03/22 07:15:11;;;;;;;11.97;7.33;;;;;;;;;;4996029;28;20314;-78
2022/03/22 07:17:36;;;;;;;14.80;9.17;;;;;;;;;;4994630;28;20274;-78
2022/03/22 07:20:01;;;;;;;12.20;8.97;;;;;;;;;;5027108;28;20183;-78
2022/03/22 07:22:26;;;;;;;12.93;8.83;;;;;;;;;;5011322;28;20336;-78
2022/03/22 07:24:52;;;;;;;12.40;9.20;;;;;;;;;;5019605;28;20177;-78
2022/03/22 07:27:17;;;;;;;10.73;7.33;;;;;;;;;;4999539;28;20171;-79
2022/03/22 07:29:42;;;;;;;12.73;7.87;;;;;;;;;;4999609;28;20180;-78
2022/03/22 07:32:07;;;;;;;11.43;6.90;;;;;;;;;;5038336;28;20183;-78
2022/03/22 07:34:33;;;;;;;19.03;8.27;;;;;;;;;;4992408;28;20188;-78
2022/03/22 07:36:58;;;;;;;9.20;7.13;;;;;;;;;;4990839;28;20211;-78
2022/03/22 07:39:24;;;;;;;20.37;10.10;;;;;;;;;;5035449;28;20213;-79
2022/03/22 07:41:49;;;;;;;13.00;7.53;;;;;;;;;;4994777;28;20167;-78
2022/03/22 07:44:15;;;;;;;13.00;9.07;;;;;;;;;;5031255;28;20176;-78
2022/03/22 07:46:41;;;;;;;14.73;9.30;;;;;;;;;;5011792;28;20186;-78
2022/03/22 07:54:35;;;;;;;10.10;7.63;;;;;;;;;;5014394;28;20189;-79
2022/03/22 07:57:01;;;;;;;12.67;8.37;;;;;;;;;;5015150;28;20208;-78
2022/03/22 07:59:27;;;;;;;12.53;8.37;;;;;;;;;;4995728;28;20176;-78
2022/03/22 08:01:52;;;;;;;14.37;8.50;;;;;;;;;;5011987;28;20176;-78
2022/03/22 08:04:17;;;;;;;11.40;7.43;;;;;;;;;;5025771;28;20197;-78
2022/03/22 08:06:43;;;;;;;11.60;7.53;;;;;;;;;;4994570;28;20276;-79
2022/03/22 08:09:08;;;;;;;16.50;6.87;;;;;;;;;;4989897;28;20255;-78
2022/03/22 08:11:33;;;;;;;10.67;6.13;;;;;;;;;;5010954;28;20181;-78
2022/03/22 08:13:59;;;;;;;8.20;4.80;;;;;;;;;;5012255;28;20187;-78
2022/03/22 08:16:25;;;;;;;7.57;4.50;;;;;;;;;;4997021;28;20241;-78
2022/03/22 08:18:51;;;;;;;7.63;3.83;;;;;;;;;;4998872;28;20237;-78
2022/03/22 08:21:16;;;;;;;7.97;3.53;;;;;;;;;;5031860;28;20183;-78
2022/03/22 08:23:41;;;;;;;6.57;4.10;;;;;;;;;;4996600;28;20181;-78
2022/03/22 08:26:06;;;;;;;5.73;3.83;;;;;;;;;;4993220;28;20185;-78
2022/03/22 08:28:32;;;;;;;10.00;4.63;;;;;;;;;;5001913;28;20186;-78
2022/03/22 08:30:58;;;;;;;7.57;5.73;;;;;;;;;;5022749;28;20190;-78
2022/03/22 08:33:23;;;;;;;11.07;7.60;;;;;;;;;;5000095;28;20182;-78
2022/03/22 08:35:49;;;;;;;11.30;7.47;;;;;;;;;;5018129;28;20201;-77
2022/03/22 08:38:15;;;;;;;11.23;8.33;;;;;;;;;;5014384;28;20192;-78
2022/03/22 08:40:41;;;;;;;12.40;8.07;;;;;;;;;;4991799;28;20186;-78
2022/03/22 08:43:07;;;;;;;13.03;7.73;;;;;;;;;;5000210;28;20180;-78
2022/03/22 08:45:33;;;;;;;12.37;7.87;;;;;;;;;;4998322;28;20210;-78
2022/03/22 08:48:00;;;;;;;11.13;8.40;;;;;;;;;;4994570;28;20182;-78
2022/03/22 08:50:26;;;;;;;10.20;8.13;;;;;;;;;;4999939;28;20202;-78
2022/03/22 08:52:51;;;;;;;11.10;8.93;;;;;;;;;;4994209;28;20183;-78
2022/03/22 08:55:17;;;;;;;10.70;8.33;;;;;;;;;;4994208;28;20196;-78
2022/03/22 08:57:44;;;;;;;15.07;8.37;;;;;;;;;;4991943;28;20209;-78
2022/03/22 09:00:10;;;;;;;14.80;8.13;;;;;;;;;;5007073;28;20203;-78
2022/03/22 09:02:39;;;;;;;11.10;8.50;;;;;;;;;;5000641;28;20201;-78
2022/03/22 09:07:49;;;;;;;11.33;8.27;;;;;;;;;;5012426;28;20186;-78
2022/03/22 09:10:14;;;;;;;11.47;8.27;;;;;;;;;;4992341;28;20179;-78
2022/03/22 09:12:40;;;;;;;13.10;8.10;;;;;;;;;;5001410;28;20228;-77
2022/03/22 09:15:05;;;;;;;12.43;7.57;;;;;;;;;;5024329;28;20569;-75
2022/03/22 09:17:31;;;;;;;12.30;8.50;;;;;;;;;;5013736;28;20185;-74
2022/03/22 09:19:56;;;;;;;8.70;7.27;;;;;;;;;;4998735;28;20190;-75
2022/03/22 09:22:22;;;;;;;10.82;8.00;;;;;;;;;;5017465;28;20183;-78
2022/03/22 09:24:47;;;;;;;8.70;6.20;;;;;;;;;;4997392;28;20183;-77
2022/03/22 09:27:12;;;;;;;9.93;6.50;;;;;;;;;;5036392;28;20270;-77
2022/03/22 09:29:38;;;;;;;9.15;6.07;;;;;;;;;;5027031;28;20186;-78
2022/03/22 09:32:03;;;;;;;11.43;6.10;;;;;;;;;;5011234;28;20186;-78
2022/03/22 09:34:29;;;;;;;11.20;7.17;;;;;;;;;;5035048;28;20183;-75
2022/03/22 09:36:55;;;;;;;8.63;6.23;;;;;;;;;;5021785;28;20226;-75
2022/03/22 09:39:20;;;;;;;11.37;7.37;;;;;;;;;;5002272;28;20180;-75
2022/03/22 09:41:47;;;;;;;9.43;5.77;;;;;;;;;;4994805;28;20334;-75
2022/03/22 09:44:13;;;;;;;7.10;5.67;;;;;;;;;;5027112;28;20176;-75
2022/03/22 09:46:39;;;;;;;9.27;6.57;;;;;;;;;;5008199;28;20187;-75
2022/03/22 09:49:06;;;;;;;9.07;5.83;;;;;;;;;;5018059;28;20191;-74
2022/03/22 09:51:48;;;;;;;8.07;5.00;;;;;;;;;;5014001;28;20331;-75
2022/03/22 09:54:19;;;;;;;9.47;6.43;;;;;;;;;;4996811;28;20330;-75
2022/03/22 09:56:45;;;;;;;7.90;6.73;;;;;;;;;;5025029;28;20204;-75
2022/03/22 09:59:10;;;;;;;8.80;5.77;;;;;;;;;;5021767;28;20176;-75
2022/03/22 10:01:35;;;;;;;8.63;6.13;;;;;;;;;;5026114;28;20363;-75
2022/03/22 10:04:06;;;;;;;8.97;8.07;;;;;;;;;;5019879;28;20208;-75
2022/03/22 10:06:32;;;;;;;11.83;6.50;;;;;;;;;;4992416;28;20189;-75
2022/03/22 10:08:58;;;;;;;9.93;5.83;;;;;;;;;;5013315;28;20177;-74
2022/03/22 10:11:43;;;;;;;9.13;5.80;;;;;;;;;;5001430;28;20188;-75
2022/03/22 10:14:09;;;;;;;8.27;5.73;;;;;;;;;;4991058;28;20200;-74
2022/03/22 10:16:51;;;;;;;8.07;5.03;;;;;;;;;;4999003;28;20208;-74
2022/03/22 10:19:17;;;;;;;7.97;6.23;;;;;;;;;;4998385;28;20180;-74
2022/03/22 10:21:45;;;;;;;6.60;5.03;;;;;;;;;;5017845;28;20271;-74
2022/03/22 10:24:12;;;;;;;6.57;5.10;;;;;;;;;;4995526;28;20214;-74
2022/03/22 10:26:37;;;;;;;9.60;4.53;;;;;;;;;;4992352;28;20281;-74
2022/03/22 10:29:07;;;;;;;8.97;4.87;;;;;;;;;;4993544;28;20269;-74
2022/03/22 10:31:34;;;;;;;6.83;4.70;;;;;;;;;;5036621;28;20182;-74
2022/03/22 10:33:59;;;;;;;8.17;5.13;;;;;;;;;;5013293;28;20181;-74
2022/03/22 10:36:25;;;;;;;8.97;4.57;;;;;;;;;;5004820;28;20207;-73
2022/03/22 10:38:55;;;;;;;9.53;5.17;;;;;;;;;;4994653;28;20179;-74
2022/03/22 10:41:27;;;;;;;12.23;6.10;;;;;;;;;;5018666;28;20189;-74
2022/03/22 10:44:02;;;;;;;8.07;5.60;;;;;;;;;;5002593;28;20188;-73
2022/03/22 10:46:28;;;;;;;12.17;6.17;;;;;;;;;;5017831;28;20185;-74
2022/03/22 10:49:00;;;;;;;7.13;4.73;;;;;;;;;;5020992;28;20181;-74
2022/03/22 10:51:31;;;;;;;10.07;5.83;;;;;;;;;;4999317;28;20182;-74
2022/03/22 10:53:56;;;;;;;10.80;5.47;;;;;;;;;;4995188;28;20349;-74
2022/03/22 10:56:22;;;;;;;7.20;5.90;;;;;;;;;;4990757;28;20272;-74
2022/03/22 10:58:47;;;;;;;10.60;5.53;;;;;;;;;;5006064;28;20237;-74
2022/03/22 11:01:15;;;;;;;9.17;7.10;;;;;;;;;;5013916;28;20209;-74
2022/03/22 11:03:40;;;;;;;11.43;6.33;;;;;;;;;;4992670;28;20237;-74
2022/03/22 11:06:06;;;;;;;10.77;6.57;;;;;;;;;;5018442;28;20214;-74
2022/03/22 11:08:31;;;;;;;9.27;6.33;;;;;;;;;;5020692;28;20196;-76
2022/03/22 11:10:56;;;;;;;9.00;6.00;;;;;;;;;;4992229;28;20233;-74
2022/03/22 11:13:22;;;;;;;8.90;5.73;;;;;;;;;;4999079;28;20247;-74
2022/03/22 11:15:48;;;;;;;7.97;6.57;;;;;;;;;;5011185;28;20250;-74
2022/03/22 11:18:18;;;;;;;10.80;5.87;;;;;;;;;;4996843;28;20229;-74
2022/03/22 11:20:52;;;;;;;9.37;6.20;;;;;;;;;;5001316;28;20229;-74
2022/03/22 11:23:21;;;;;;;10.13;6.47;;;;;;;;;;5015315;28;20185;-74
2022/03/22 11:25:46;;;;;;;11.10;7.73;;;;;;;;;;5002124;28;20278;-74
2022/03/22 11:28:13;;;;;;;9.07;6.73;;;;;;;;;;4999825;28;20261;-74
2022/03/22 11:30:40;;;;;;;10.17;5.97;;;;;;;;;;5003355;28;20210;-74
2022/03/22 11:36:28;;;;;;;8.13;6.50;;;;;;;;;;5018412;28;20212;-74
2022/03/22 11:38:57;;;;;;;8.33;6.53;;;;;;;;;;4953189;28;20205;-74
2022/03/22 11:44:17;;;;;;;14.20;9.20;;;;;;;;;;4952401;28;20284;-74
2022/03/22 11:46:43;;;;;;;12.23;8.23;;;;;;;;;;4939122;29;20221;-74
2022/03/22 11:49:12;;;;;;;12.63;7.53;;;;;;;;;;4942832;28;20213;-74
2022/03/22 11:51:50;;;;;;;14.17;7.87;;;;;;;;;;4946082;28;20185;-74
2022/03/22 11:54:15;;;;;;;10.10;7.30;;;;;;;;;;4942188;28;20323;-74
2022/03/22 11:56:47;;;;;;;11.70;8.70;;;;;;;;;;4944436;29;20333;-74
2022/03/22 11:59:17;;;;;;;14.57;8.97;;;;;;;;;;4944958;28;20249;-74
2022/03/22 12:01:53;;;;;;;11.80;8.40;;;;;;;;;;4951674;28;20198;-74
2022/03/22 12:04:18;;;;;;;12.67;9.23;;;;;;;;;;4958227;28;20204;-74
2022/03/22 12:06:43;;;;;;;11.07;8.57;;;;;;;;;;4936566;29;20193;-74
2022/03/22 12:09:08;;;;;;;12.63;8.90;;;;;;;;;;4961231;28;20201;-74
2022/03/22 12:11:35;;;;;;;12.90;9.57;;;;;;;;;;4948038;28;20240;-74
2022/03/22 12:14:01;;;;;;;11.87;9.60;;;;;;;;;;4963309;28;20184;-74
2022/03/22 12:16:27;;;;;;;11.90;8.17;;;;;;;;;;5008600;28;20277;-74
2022/03/22 12:18:52;;;;;;;14.23;8.93;;;;;;;;;;5018431;28;20188;-74
2022/03/22 12:21:18;;;;;;;13.83;8.43;;;;;;;;;;5005590;28;20246;-74
2022/03/22 12:23:44;;;;;;;14.73;9.80;;;;;;;;;;4995460;28;20180;-74
2022/03/22 12:26:10;;;;;;;13.40;9.97;;;;;;;;;;4997302;28;20185;-74
2022/03/22 12:28:44;;;;;;;12.37;10.17;;;;;;;;;;5010013;28;20184;-74
2022/03/22 12:31:12;;;;;;;12.97;9.83;;;;;;;;;;5019334;28;20185;-74
2022/03/22 12:33:38;;;;;;;13.00;7.87;;;;;;;;;;5011476;28;20192;-74
2022/03/22 12:36:03;;;;;;;15.90;10.10;;;;;;;;;;5010713;28;20206;-74
2022/03/22 12:38:29;;;;;;;15.47;8.23;;;;;;;;;;4997080;28;20174;-74
2022/03/22 12:40:54;;;;;;;10.67;9.10;;;;;;;;;;5009329;28;20255;-74
2022/03/22 12:43:19;;;;;;;11.73;8.57;;;;;;;;;;5013926;28;20178;-74
2022/03/22 12:45:46;;;;;;;15.10;10.67;;;;;;;;;;4996557;28;20171;-74
2022/03/22 12:48:14;;;;;;;14.03;9.70;;;;;;;;;;4999239;28;20255;-74
2022/03/22 12:50:39;;;;;;;11.97;9.27;;;;;;;;;;5005829;28;20190;-74
2022/03/22 12:53:04;;;;;;;14.63;9.20;;;;;;;;;;5013167;28;20181;-74
2022/03/22 12:55:29;;;;;;;14.03;9.00;;;;;;;;;;4996652;28;20195;-74
2022/03/22 12:57:57;;;;;;;14.47;10.10;;;;;;;;;;5005732;28;20206;-74
2022/03/22 13:00:30;;;;;;;14.00;9.93;;;;;;;;;;5018484;28;20179;-74
2022/03/22 13:02:56;;;;;;;36.73;15.10;;;;;;;;;;5013892;28;20196;-73
2022/03/22 13:05:30;;;;;;;14.33;9.10;;;;;;;;;;5024644;28;20225;-74
2022/03/22 13:07:58;;;;;;;15.83;9.17;;;;;;;;;;5019993;28;20183;-74
2022/03/22 13:13:17;;;;;;;15.47;9.47;;;;;;;;;;5012433;28;20202;-74
2022/03/22 13:15:46;;;;;;;19.73;11.33;;;;;;;;;;5011193;28;20366;-73
2022/03/22 13:18:12;;;;;;;15.30;9.20;;;;;;;;;;5013292;28;20193;-72
2022/03/22 13:20:39;;;;;;;15.77;10.40;;;;;;;;;;4997027;28;20202;-73
2022/03/22 13:23:06;;;;;;;13.63;9.70;;;;;;;;;;5000085;28;20201;-72
2022/03/22 13:25:33;;;;;;;16.63;10.63;;;;;;;;;;5009827;28;20261;-72
2022/03/22 13:28:08;;;;;;;14.10;9.73;;;;;;;;;;5023718;28;20187;-72
2022/03/22 13:30:35;;;;;;;11.47;8.57;;;;;;;;;;5004484;28;20193;-72
2022/03/22 13:33:13;;;;;;;13.97;8.77;;;;;;;;;;5014445;28;20207;-72
2022/03/22 13:35:39;;;;;;;10.50;9.03;;;;;;;;;;5026587;28;20242;-72
2022/03/22 13:38:05;;;;;;;14.43;9.73;;;;;;;;;;5015411;28;20174;-73
2022/03/22 13:40:34;;;;;;;13.90;8.83;;;;;;;;;;5009647;28;20202;-72
2022/03/22 13:43:10;;;;;;;18.43;15.80;;;;;;;;;;5027456;28;20212;-72
2022/03/22 13:45:36;;;;;;;18.27;10.40;;;;;;;;;;5008306;28;20189;-72
2022/03/22 13:48:08;;;;;;;11.77;8.70;;;;;;;;;;5007265;28;20183;-72
2022/03/22 13:50:34;;;;;;;14.60;9.70;;;;;;;;;;5015182;28;20190;-72
2022/03/22 13:53:03;;;;;;;14.00;10.20;;;;;;;;;;5012775;28;20180;-73
2022/03/22 13:55:29;;;;;;;15.10;9.20;;;;;;;;;;4998969;28;20200;-73
2022/03/22 13:57:55;;;;;;;12.10;9.70;;;;;;;;;;4995178;28;20263;-72
2022/03/22 14:00:21;;;;;;;14.17;9.90;;;;;;;;;;5013950;28;20223;-72
2022/03/22 14:02:46;;;;;;;12.40;10.33;;;;;;;;;;5026862;28;20478;-73
2022/03/22 14:05:12;;;;;;;14.93;10.77;;;;;;;;;;4998140;28;20238;-72
2022/03/22 14:07:37;;;;;;;12.93;10.27;;;;;;;;;;4996856;28;20223;-73
2022/03/22 14:10:03;;;;;;;16.73;11.83;;;;;;;;;;5015987;28;20270;-72
2022/03/22 14:12:29;;;;;;;15.07;9.73;;;;;;;;;;4998953;28;20196;-73
2022/03/22 14:14:54;;;;;;;15.40;11.87;;;;;;;;;;5008213;28;20328;-72
2022/03/22 14:17:20;;;;;;;14.53;10.13;;;;;;;;;;5012260;28;20213;-72
2022/03/22 14:19:45;;;;;;;16.70;11.37;;;;;;;;;;5001290;28;20175;-72
2022/03/22 14:22:10;;;;;;;15.13;11.83;;;;;;;;;;5000999;28;20262;-72
2022/03/22 14:24:35;;;;;;;16.27;10.93;;;;;;;;;;5016362;28;20183;-73
2022/03/22 14:27:00;;;;;;;15.33;10.93;;;;;;;;;;5016066;28;20287;-73
2022/03/22 14:29:26;;;;;;;14.10;10.83;;;;;;;;;;4990943;28;20282;-72
2022/03/22 14:31:52;;;;;;;16.97;12.70;;;;;;;;;;5003376;28;20245;-72
2022/03/22 14:35:46;;;;;;;16.20;11.93;;;;;;;;;;4995471;28;20202;-73
2022/03/22 14:37:02;;;;;;;16.13;11.67;;;;;;;;;;5012883;28;20220;-72
2022/03/22 14:39:28;;;;;;;15.17;11.50;;;;;;;;;;4991423;28;20190;-72
2022/03/22 14:41:55;;;;;;;16.20;11.63;;;;;;;;;;5014629;28;20216;-73
2022/03/22 14:44:20;;;;;;;15.67;11.83;;;;;;;;;;5017172;28;20211;-72
2022/03/22 14:46:48;;;;;;;13.80;11.40;;;;;;;;;;4993965;28;20218;-72
2022/03/22 14:49:14;;;;;;;16.67;12.63;;;;;;;;;;5012862;28;20262;-72
2022/03/22 14:54:24;;;;;;;17.93;12.77;;;;;;;;;;5007779;28;20278;-72
2022/03/22 14:59:46;;;;;;;18.57;14.00;;;;;;;;;;4984424;28;20197;-72
2022/03/22 15:02:13;;;;;;;16.00;12.87;;;;;;;;;;5011071;28;20174;-72
2022/03/22 15:04:39;;;;;;;13.53;11.37;;;;;;;;;;5010702;28;20197;-72
2022/03/22 15:07:04;;;;;;;16.23;13.00;;;;;;;;;;4999719;28;20268;-72
2022/03/22 15:09:30;;;;;;;15.17;12.50;;;;;;;;;;4989721;28;20187;-73
2022/03/22 15:11:56;;;;;;;20.80;13.97;;;;;;;;;;4988754;28;20235;-73